createdAt,value
2019-01-05T00:00:54.331Z,53.5
2019-01-05T00:05:50.958Z,53.7
2019-01-05T00:10:47.183Z,53.8
2019-01-05T00:15:42.969Z,53.9
2019-01-05T00:20:39.001Z,53.4
2019-01-05T00:25:35.690Z,53.5
2019-01-05T00:30:32.107Z,54.3
2019-01-05T00:35:28.684Z,53.7
2019-01-05T00:40:24.541Z,52.3
2019-01-05T00:45:20.664Z,52
2019-01-05T00:50:17.131Z,50.9
2019-01-05T00:55:13.584Z,51.4
2019-01-05T01:00:09.790Z,51.6
2019-01-05T01:05:06.033Z,51.2
2019-01-05T01:10:02.524Z,51.3
2019-01-05T01:14:58.837Z,51.9
2019-01-05T01:19:54.978Z,52.2
2019-01-05T01:24:51.468Z,51.5
2019-01-05T01:29:47.785Z,51.1
2019-01-05T01:34:44.043Z,51.6
2019-01-05T01:39:40.455Z,51.7
2019-01-05T01:44:36.916Z,51.4
2019-01-05T01:49:33.632Z,51.7
2019-01-05T01:54:30.130Z,52
2019-01-05T01:59:26.825Z,53.1
2019-01-05T02:04:23.223Z,52.2
2019-01-05T02:09:19.733Z,53.1
2019-01-05T02:14:15.883Z,53
2019-01-05T02:19:12.713Z,52.9
2019-01-05T02:24:08.986Z,52.6
2019-01-05T02:29:05.586Z,52.9
2019-01-05T02:34:02.047Z,52.6
2019-01-05T02:38:58.513Z,52.5
2019-01-05T02:43:54.820Z,52.3
2019-01-05T02:48:51.310Z,52.3
2019-01-05T02:53:47.841Z,52.7
2019-01-05T02:58:44.573Z,53.1
2019-01-05T03:03:40.929Z,53.3
2019-01-05T03:08:37.538Z,52.8
2019-01-05T03:13:34.521Z,52.5
2019-01-05T03:18:34.310Z,52.8
2019-01-05T03:23:33.412Z,52.8
2019-01-05T03:28:31.033Z,52.6
2019-01-05T03:33:29.463Z,52.9
2019-01-05T03:38:28.354Z,53.1
2019-01-05T03:43:28.963Z,52.6
2019-01-05T03:48:26.948Z,53.1
2019-01-05T03:53:28.203Z,52.3
2019-01-05T03:58:27.695Z,52.9
2019-01-05T04:03:26.921Z,52.5
2019-01-05T04:08:25.757Z,53.5
2019-01-05T04:13:24.224Z,52.7
2019-01-05T04:18:27.149Z,52.3
2019-01-05T04:23:20.973Z,52.9
2019-01-05T04:28:21.147Z,53.4
2019-01-05T04:33:18.933Z,53.3
2019-01-05T04:38:15.899Z,53.1
2019-01-05T04:43:14.436Z,52.9
2019-01-05T04:48:16.241Z,54.2
2019-01-05T04:53:14.494Z,53.4
2019-01-05T04:58:17.224Z,53.3
2019-01-05T05:03:16.100Z,52.8
2019-01-05T05:08:13.928Z,53.2
2019-01-05T05:13:11.456Z,52.1
2019-01-05T05:18:12.295Z,51.6
2019-01-05T05:23:11.231Z,51.5
2019-01-05T05:28:08.092Z,52.5
2019-01-05T05:33:05.571Z,52.3
2019-01-05T05:38:07.860Z,52.8
2019-01-05T05:43:03.899Z,52
2019-01-05T05:48:02.065Z,52.3
2019-01-05T05:52:59.595Z,52.4
2019-01-05T05:57:57.871Z,52.3
2019-01-05T06:02:55.727Z,52.2
2019-01-05T06:07:53.483Z,51.8
2019-01-05T06:12:51.998Z,51.4
2019-01-05T06:17:51.234Z,52.3
2019-01-05T06:22:47.643Z,51.7
2019-01-05T06:27:45.809Z,51.4
2019-01-05T06:32:45.075Z,52
2019-01-05T06:37:44.668Z,51.7
2019-01-05T06:42:44.200Z,51.7
2019-01-05T06:47:46.742Z,51.9
2019-01-05T06:52:45.077Z,51.9
2019-01-05T06:57:42.342Z,52
2019-01-05T07:02:41.189Z,52.2
2019-01-05T07:07:40.694Z,51.9
2019-01-05T07:12:37.981Z,52.3
2019-01-05T07:17:36.036Z,52.1
2019-01-05T07:22:35.029Z,52.2
2019-01-05T07:27:32.702Z,52.4
2019-01-05T07:32:30.163Z,53
2019-01-05T07:37:26.763Z,52.6
2019-01-05T07:42:24.542Z,53
2019-01-05T07:47:22.305Z,52.9
2019-01-05T07:52:18.576Z,52.6
2019-01-05T07:57:19.647Z,53.1
2019-01-05T08:02:18.145Z,53.3
2019-01-05T08:07:17.302Z,53.4
2019-01-05T08:12:14.447Z,53.2
2019-01-05T08:17:11.067Z,53
2019-01-05T08:22:08.457Z,52.6
2019-01-05T08:27:05.854Z,52.9
2019-01-05T08:32:03.163Z,53.5
2019-01-05T08:37:00.465Z,52.5
2019-01-05T08:41:58.073Z,51.9
2019-01-05T08:46:55.450Z,52.2
2019-01-05T08:51:53.012Z,52.1
2019-01-05T08:56:51.074Z,52.1
2019-01-05T09:01:48.167Z,51.8
2019-01-05T09:06:48.594Z,52.2
2019-01-05T09:11:47.312Z,52.3
2019-01-05T09:16:43.895Z,52.3
2019-01-05T09:21:43.168Z,52.4
2019-01-05T09:26:41.229Z,52.8
2019-01-05T09:31:39.055Z,52
2019-01-05T09:36:36.303Z,52.2
2019-01-05T09:41:33.733Z,51.9
2019-01-05T09:46:31.279Z,51.6
2019-01-05T09:51:28.842Z,51.5
2019-01-05T09:56:26.856Z,51.9
2019-01-05T10:01:24.123Z,52.1
2019-01-05T10:06:22.401Z,52.2
2019-01-05T10:11:18.868Z,51.7
2019-01-05T10:16:21.089Z,51.5
2019-01-05T10:21:15.621Z,52
2019-01-05T10:26:12.656Z,51.6
2019-01-05T10:31:08.023Z,51.2
2019-01-05T10:36:04.244Z,51.5
2019-01-05T10:41:00.676Z,50.9
2019-01-05T10:45:57.224Z,50.4
2019-01-05T10:50:53.639Z,50.1
2019-01-05T10:55:50.250Z,50.4
2019-01-05T11:00:46.659Z,49.9
2019-01-05T11:05:43.381Z,49.7
2019-01-05T11:10:39.919Z,49.5
2019-01-05T11:15:36.323Z,49.4
2019-01-05T11:20:35.809Z,49.2
2019-01-05T11:25:29.567Z,49.2
2019-01-05T11:30:25.820Z,48.9
2019-01-05T11:35:22.322Z,48.7
2019-01-05T11:40:19.011Z,48.7
2019-01-05T11:45:15.300Z,48.1
2019-01-05T11:50:11.784Z,48
2019-01-05T11:55:08.465Z,47.2
2019-01-05T12:00:04.909Z,47.5
2019-01-05T12:05:01.582Z,46.6
2019-01-05T12:10:01.060Z,46.8
2019-01-05T12:14:56.266Z,46.4
2019-01-05T12:19:52.961Z,45.7
2019-01-05T12:24:50.843Z,45
2019-01-05T12:29:46.368Z,44.7
2019-01-05T12:34:43.160Z,44.1
2019-01-05T12:39:39.115Z,44.3
2019-01-05T12:44:35.647Z,44
2019-01-05T12:49:31.516Z,44.2
2019-01-05T12:54:28.308Z,44.2
2019-01-05T12:59:24.617Z,43.7
2019-01-05T13:04:21.550Z,44
2019-01-05T13:09:17.840Z,44.3
2019-01-05T13:14:14.248Z,43.8
2019-01-05T13:19:10.258Z,43.8
2019-01-05T13:24:06.526Z,44.2
2019-01-05T13:29:02.996Z,44.1
2019-01-05T13:33:59.316Z,44
2019-01-05T13:38:55.791Z,44.3
2019-01-05T13:43:52.355Z,45.1
2019-01-05T13:48:48.829Z,45.7
2019-01-05T13:53:45.449Z,45.6
2019-01-05T13:58:41.685Z,46
2019-01-05T14:03:38.303Z,46.3
2019-01-05T14:08:34.366Z,47
2019-01-05T14:13:30.970Z,46.8
2019-01-05T14:18:26.998Z,47.1
2019-01-05T14:23:22.846Z,46.7
2019-01-05T14:28:19.362Z,47.3
2019-01-05T14:33:15.784Z,46.7
2019-01-05T14:38:12.294Z,47.1
2019-01-05T14:43:08.671Z,47.3
2019-01-05T14:48:05.115Z,47.5
2019-01-05T14:53:02.057Z,47.8
2019-01-05T14:57:58.315Z,48.1
2019-01-05T15:02:54.573Z,47.9
2019-01-05T15:07:51.084Z,48
2019-01-05T15:12:47.087Z,48
2019-01-05T15:17:43.407Z,48.3
2019-01-05T15:22:39.897Z,48.9
2019-01-05T15:27:36.427Z,48.7
2019-01-05T15:32:32.399Z,48.9
2019-01-05T15:37:28.645Z,49
2019-01-05T15:42:25.205Z,49.5
2019-01-05T15:47:21.469Z,49.5
2019-01-05T15:52:17.923Z,49.6
2019-01-05T15:57:14.026Z,50.4
2019-01-05T16:02:10.921Z,50
2019-01-05T16:07:07.490Z,50
2019-01-05T16:12:03.843Z,50.1
2019-01-05T16:17:00.416Z,50.3
2019-01-05T16:21:57.182Z,50.5
2019-01-05T16:26:59.001Z,50.6
2019-01-05T16:31:49.909Z,50.9
2019-01-05T16:36:46.278Z,51
2019-01-05T16:41:42.638Z,50.9
2019-01-05T16:46:39.164Z,51
2019-01-05T16:51:35.621Z,51.2
2019-01-05T16:56:32.087Z,51.2
2019-01-05T17:01:28.834Z,51.3
2019-01-05T17:06:24.818Z,50.9
2019-01-05T17:11:21.281Z,51.1
2019-01-05T17:16:17.561Z,51.1
2019-01-05T17:21:18.246Z,51.2
2019-01-05T17:26:13.355Z,51.1
2019-01-05T17:31:10.203Z,51.5
2019-01-05T17:36:06.243Z,51.6
2019-01-05T17:41:03.223Z,51.6
2019-01-05T17:45:59.711Z,51.4
2019-01-05T17:50:56.318Z,51.5
2019-01-05T17:55:52.819Z,51.2
2019-01-05T18:00:49.648Z,50.9
2019-01-05T18:05:45.951Z,51.4
2019-01-05T18:10:42.353Z,51.2
2019-01-05T18:15:38.881Z,51.3
2019-01-05T18:20:35.187Z,51.4
2019-01-05T18:25:31.125Z,51
2019-01-05T18:30:26.953Z,51
2019-01-05T18:35:22.818Z,50.6
2019-01-05T18:40:19.330Z,50.8
2019-01-05T18:45:15.768Z,50.4
2019-01-05T18:50:12.840Z,50.3
2019-01-05T18:55:09.828Z,50.5
2019-01-05T19:00:06.319Z,50
2019-01-05T19:05:02.423Z,50.6
2019-01-05T19:09:58.834Z,50.8
2019-01-05T19:14:55.061Z,50.9
2019-01-05T19:19:51.555Z,51.1
2019-01-05T19:24:48.240Z,51.1
2019-01-05T19:29:44.726Z,51.5
2019-01-05T19:34:40.921Z,51
2019-01-05T19:39:37.410Z,51.2
2019-01-05T19:44:34.061Z,51.3
2019-01-05T19:49:30.750Z,51.2
2019-01-05T19:54:27.208Z,50.9
2019-01-05T19:59:23.937Z,50.8
2019-01-05T20:04:20.299Z,50.3
2019-01-05T20:09:16.699Z,49.9
2019-01-05T20:14:13.191Z,50.2
2019-01-05T20:19:09.391Z,49.9
2019-01-05T20:24:06.126Z,50.3
2019-01-05T20:29:02.404Z,50.5
2019-01-05T20:33:58.949Z,50.9
2019-01-05T20:38:55.435Z,50.7
2019-01-05T20:43:51.903Z,51.1
2019-01-05T20:48:51.332Z,51.3
2019-01-05T20:53:47.593Z,51.3
2019-01-05T20:58:44.469Z,51.2
2019-01-05T21:03:41.074Z,51.1
2019-01-05T21:08:37.181Z,50.4
2019-01-05T21:13:33.281Z,50.3
2019-01-05T21:18:30.202Z,50.6
2019-01-05T21:23:26.911Z,50.6
2019-01-05T21:28:23.376Z,51
2019-01-05T21:33:25.654Z,50.7
2019-01-05T21:38:16.619Z,51.2
2019-01-05T21:43:12.748Z,51.7
2019-01-05T21:48:08.501Z,51.5
2019-01-05T21:53:04.617Z,51.4
2019-01-05T21:58:01.241Z,52.5
2019-01-05T22:02:57.467Z,53.5
2019-01-05T22:07:54.096Z,53.8
2019-01-05T22:12:50.709Z,54
2019-01-05T22:17:47.293Z,53.6
2019-01-05T22:22:43.960Z,53.6
2019-01-05T22:27:40.618Z,52.8
2019-01-05T22:32:36.503Z,52.9
2019-01-05T22:37:32.923Z,53.6
2019-01-05T22:42:29.306Z,53
2019-01-05T22:47:25.941Z,53.1
2019-01-05T22:52:22.252Z,53.5
2019-01-05T22:57:19.449Z,53.6
2019-01-05T23:02:15.956Z,53.2
2019-01-05T23:07:12.295Z,53.2
2019-01-05T23:12:08.644Z,53.5
2019-01-05T23:17:04.943Z,52.9
2019-01-05T23:22:01.394Z,54.3
2019-01-05T23:26:57.790Z,54.4
2019-01-05T23:31:54.051Z,54.3
2019-01-05T23:36:50.909Z,55.4
2019-01-05T23:41:47.304Z,56
2019-01-05T23:46:43.642Z,56
2019-01-05T23:51:39.956Z,56.3
2019-01-05T23:56:36.457Z,56.1
